Saint Louis, Missouri
Traffic Map
Current Weather Conditions
Saint Louis, Missouri
Clear
Clear
79°
Feels Like: 79°
Wind Chill: 79° Ceiling: Unl
Heat Index: 79° Visibility: 10mi
Dew Point: 39° Wind: 8mph
Humidity: 24% Direction: 290° (WNW)
Pressure: 29.98in Gusts: 0mph
Raw Report DataKCPS 062053Z AUTO 29007KT 10SM CLR 26/04 A2998 RMK AO2 SLP151 T02610039 57020
Traffic Incident Summary
Active as of:
Severity:
Category:
InformationThere was an issue retrieving the traffic information for this location. Please try a different location or try again shortly.
Advertisements
Track Severe Weather on mobile